createdAt,value
2022-09-30T00:01:44.083Z,8.15
2022-09-30T00:04:18.493Z,4.45
2022-09-30T00:06:46.489Z,6.97
2022-09-30T00:09:14.486Z,7.30
2022-09-30T00:11:42.950Z,5.95
2022-09-30T00:14:19.236Z,10.27
2022-09-30T00:16:47.003Z,7.15
2022-09-30T00:19:14.991Z,6.00
2022-09-30T00:21:42.852Z,6.50
2022-09-30T00:24:10.640Z,9.07
2022-09-30T00:26:38.170Z,7.10
2022-09-30T00:29:05.534Z,8.18
2022-09-30T00:31:35.461Z,6.00
2022-09-30T00:34:07.061Z,5.90
2022-09-30T00:36:34.692Z,4.03
2022-09-30T00:39:02.492Z,9.65
2022-09-30T00:41:29.906Z,5.85
2022-09-30T00:43:57.352Z,7.93
2022-09-30T00:46:44.553Z,8.02
2022-09-30T00:49:19.042Z,4.78
2022-09-30T00:51:51.005Z,6.18
2022-09-30T00:54:22.756Z,4.18
2022-09-30T00:56:54.978Z,3.88
2022-09-30T00:59:38.193Z,5.00
2022-09-30T01:02:06.575Z,5.53
2022-09-30T01:04:35.046Z,8.27
2022-09-30T01:07:04.603Z,6.82
2022-09-30T01:09:41.476Z,4.93
2022-09-30T01:12:14.243Z,5.80
2022-09-30T01:14:42.766Z,4.82
2022-09-30T01:17:11.812Z,6.63
2022-09-30T01:20:07.383Z,4.55
2022-09-30T01:22:57.606Z,10.40
2022-09-30T01:25:49.197Z,8.82
2022-09-30T01:28:47.663Z,7.82
2022-09-30T01:31:43.217Z,5.30
2022-09-30T01:34:27.179Z,5.80
2022-09-30T01:37:09.938Z,6.50
2022-09-30T01:39:57.477Z,7.90
2022-09-30T01:42:46.458Z,6.28
2022-09-30T01:45:20.000Z,6.88
2022-09-30T01:48:10.313Z,7.03
2022-09-30T01:51:01.683Z,6.97
2022-09-30T01:53:46.913Z,8.25
2022-09-30T01:56:20.008Z,7.50
2022-09-30T01:59:21.437Z,8.30
2022-09-30T02:02:04.431Z,8.73
2022-09-30T02:04:36.297Z,8.52
2022-09-30T02:07:08.083Z,6.40
2022-09-30T02:09:50.765Z,8.77
2022-09-30T02:12:22.614Z,9.05
2022-09-30T02:14:59.166Z,5.45
2022-09-30T02:17:44.369Z,7.57
2022-09-30T02:20:20.705Z,8.70
2022-09-30T02:22:53.271Z,5.32
2022-09-30T02:25:30.018Z,6.22
2022-09-30T02:28:01.480Z,5.70
2022-09-30T02:30:29.962Z,7.57
2022-09-30T02:33:01.036Z,5.07
2022-09-30T02:35:36.041Z,7.53
2022-09-30T02:38:17.833Z,3.80
2022-09-30T02:40:53.271Z,2.72
2022-09-30T02:43:21.441Z,3.63
2022-09-30T02:46:08.853Z,4.13
2022-09-30T02:48:54.660Z,3.03
2022-09-30T02:52:01.917Z,3.55
2022-09-30T02:54:37.975Z,1.85
2022-09-30T02:57:07.027Z,2.25
2022-09-30T02:59:34.600Z,2.33
2022-09-30T03:02:02.064Z,2.63
2022-09-30T03:04:34.713Z,5.97
2022-09-30T03:07:02.291Z,3.22
2022-09-30T03:09:29.761Z,1.42
2022-09-30T03:12:10.731Z,3.25
2022-09-30T03:14:47.659Z,1.52
2022-09-30T03:17:21.243Z,2.22
2022-09-30T03:20:08.240Z,2.25
2022-09-30T03:22:51.937Z,2.50
2022-09-30T03:26:00.092Z,4.28
2022-09-30T03:28:45.048Z,4.18
2022-09-30T03:31:25.816Z,1.77
2022-09-30T03:34:09.278Z,2.97
2022-09-30T03:36:46.949Z,2.55
2022-09-30T03:39:29.122Z,5.43
2022-09-30T03:42:23.811Z,4.25
2022-09-30T03:45:04.123Z,2.42
2022-09-30T03:47:35.980Z,2.78
2022-09-30T03:50:08.248Z,6.40
2022-09-30T03:55:06.346Z,4.20
2022-09-30T03:57:33.715Z,4.75
2022-09-30T04:00:01.787Z,4.50
2022-09-30T04:02:32.542Z,6.60
2022-09-30T04:04:59.939Z,4.03
2022-09-30T04:07:27.326Z,4.10
2022-09-30T04:09:54.700Z,4.80
2022-09-30T04:12:22.166Z,3.38
2022-09-30T04:14:49.588Z,5.45
2022-09-30T04:17:16.957Z,5.07
2022-09-30T04:19:44.699Z,3.53
2022-09-30T04:22:12.080Z,7.28
2022-09-30T04:24:39.579Z,5.85
2022-09-30T04:27:06.982Z,7.03
2022-09-30T04:29:34.380Z,5.00
2022-09-30T04:32:01.888Z,2.10
2022-09-30T04:34:29.277Z,4.10
2022-09-30T04:36:56.692Z,6.68
2022-09-30T04:39:24.105Z,4.32
2022-09-30T04:41:53.877Z,7.53
2022-09-30T04:44:21.549Z,5.82
2022-09-30T04:46:48.917Z,7.80
2022-09-30T04:49:16.455Z,8.43
2022-09-30T04:51:46.168Z,6.18
2022-09-30T04:54:14.277Z,8.88
2022-09-30T04:56:41.654Z,8.75
2022-09-30T04:59:09.029Z,9.30
2022-09-30T05:01:36.574Z,8.60
2022-09-30T05:04:04.078Z,4.07
2022-09-30T05:06:31.469Z,9.93
2022-09-30T05:08:58.900Z,9.98
2022-09-30T05:11:26.458Z,9.93
2022-09-30T05:13:54.967Z,9.30
2022-09-30T05:16:22.584Z,9.30
2022-09-30T05:18:50.142Z,13.02
2022-09-30T05:21:22.574Z,11.73
2022-09-30T05:23:50.158Z,8.00
2022-09-30T05:26:17.588Z,11.40
2022-09-30T05:28:45.020Z,10.10
2022-09-30T05:31:13.527Z,9.10
2022-09-30T05:33:42.004Z,5.85
2022-09-30T05:36:12.070Z,12.93
2022-09-30T05:38:39.481Z,8.43
2022-09-30T05:41:08.694Z,11.05
2022-09-30T05:43:41.475Z,5.90
2022-09-30T05:46:09.087Z,6.40
2022-09-30T05:48:36.691Z,3.25
2022-09-30T05:51:04.215Z,4.93
2022-09-30T05:53:32.379Z,5.47
2022-09-30T05:56:00.589Z,3.05
2022-09-30T05:58:27.998Z,5.22
2022-09-30T06:00:55.426Z,4.75
2022-09-30T06:03:22.965Z,5.25
2022-09-30T06:05:57.047Z,5.25
2022-09-30T06:08:24.524Z,7.30
2022-09-30T06:10:51.910Z,10.18
2022-09-30T06:13:21.360Z,6.13
2022-09-30T06:15:59.282Z,3.80
2022-09-30T06:18:28.466Z,3.75
2022-09-30T06:21:00.246Z,5.75
2022-09-30T06:23:28.372Z,5.63
2022-09-30T06:25:56.065Z,5.82
2022-09-30T06:28:24.779Z,4.97
2022-09-30T06:30:52.126Z,7.05
2022-09-30T06:33:19.762Z,4.28
2022-09-30T06:35:47.665Z,5.70
2022-09-30T06:38:15.855Z,4.38
2022-09-30T06:40:44.104Z,6.82
2022-09-30T06:43:11.643Z,3.45
2022-09-30T06:45:39.476Z,3.25
2022-09-30T06:48:09.095Z,4.00
2022-09-30T06:50:39.150Z,6.18
2022-09-30T06:53:08.666Z,4.93
2022-09-30T06:55:39.445Z,5.38
2022-09-30T06:58:11.261Z,1.90
2022-09-30T07:00:39.686Z,4.45
2022-09-30T07:03:15.957Z,3.92
2022-09-30T07:05:43.325Z,4.80
2022-09-30T07:08:10.770Z,5.25
2022-09-30T07:10:38.209Z,7.07
2022-09-30T07:13:06.807Z,8.90
2022-09-30T07:15:34.185Z,10.18
2022-09-30T07:18:01.682Z,4.78
2022-09-30T07:20:29.085Z,6.40
2022-09-30T07:22:58.129Z,5.95
2022-09-30T07:25:25.931Z,7.00
2022-09-30T07:27:55.065Z,3.70
2022-09-30T07:30:27.050Z,3.72
2022-09-30T07:35:21.891Z,7.00
2022-09-30T07:37:50.487Z,9.40
2022-09-30T07:40:17.944Z,5.40
2022-09-30T07:42:45.830Z,18.20
2022-09-30T07:45:18.626Z,6.78
2022-09-30T07:47:49.807Z,6.47
2022-09-30T07:50:21.255Z,4.43
2022-09-30T07:52:48.639Z,4.82
2022-09-30T07:55:16.055Z,2.65
2022-09-30T07:57:43.498Z,6.60
2022-09-30T08:00:37.387Z,10.35
2022-09-30T08:02:58.817Z,6.72
2022-09-30T08:05:26.203Z,5.22
2022-09-30T08:07:53.595Z,7.00
2022-09-30T08:15:25.249Z,6.88
2022-09-30T08:17:52.599Z,2.63
2022-09-30T08:20:22.442Z,5.05
2022-09-30T08:22:56.767Z,3.30
2022-09-30T08:25:24.815Z,2.83
2022-09-30T08:27:52.228Z,1.33
2022-09-30T08:30:19.667Z,1.63
2022-09-30T08:32:47.057Z,1.63
2022-09-30T08:35:14.522Z,2.75
2022-09-30T08:37:41.999Z,2.15
2022-09-30T08:40:31.623Z,1.98
2022-09-30T08:43:29.839Z,3.45
2022-09-30T08:46:05.586Z,4.38
2022-09-30T08:48:36.114Z,4.20
2022-09-30T08:51:29.078Z,3.42
2022-09-30T08:53:59.164Z,1.50
2022-09-30T08:56:31.486Z,6.80
2022-09-30T09:01:40.193Z,2.45
2022-09-30T09:04:08.770Z,13.93
2022-09-30T09:06:42.636Z,2.03
2022-09-30T09:09:21.191Z,3.13
2022-09-30T09:12:13.633Z,3.78
2022-09-30T09:14:41.024Z,2.35
2022-09-30T09:17:15.471Z,4.93
2022-09-30T09:19:54.309Z,5.45
2022-09-30T09:22:24.826Z,3.13
2022-09-30T09:24:53.572Z,4.47
2022-09-30T09:27:45.405Z,2.83
2022-09-30T09:30:17.315Z,2.30
2022-09-30T09:32:58.182Z,5.90
2022-09-30T09:35:54.377Z,2.70
2022-09-30T09:38:27.407Z,6.38
2022-09-30T09:41:07.063Z,4.15
2022-09-30T09:43:52.258Z,3.63
2022-09-30T09:46:33.189Z,4.68
2022-09-30T09:49:23.632Z,6.30
2022-09-30T09:52:12.184Z,2.63
2022-09-30T09:54:47.166Z,3.05
2022-09-30T09:57:24.848Z,3.80
2022-09-30T10:02:31.926Z,1.80
2022-09-30T10:05:03.933Z,4.80
2022-09-30T10:07:33.208Z,4.45
2022-09-30T10:10:26.806Z,7.53
2022-09-30T10:12:54.215Z,2.80
2022-09-30T10:15:24.195Z,3.28
2022-09-30T10:17:57.562Z,3.50
2022-09-30T10:20:37.011Z,4.05
2022-09-30T10:23:26.399Z,5.00
2022-09-30T10:26:00.010Z,2.20
2022-09-30T10:28:31.010Z,4.18
2022-09-30T10:31:05.677Z,5.05
2022-09-30T10:33:48.407Z,4.88
2022-09-30T10:36:21.335Z,2.50
2022-09-30T10:39:09.217Z,5.13
2022-09-30T10:41:38.575Z,3.50
2022-09-30T10:44:17.029Z,2.65
2022-09-30T10:46:47.615Z,8.80
2022-09-30T10:49:26.903Z,8.48
2022-09-30T10:51:59.997Z,5.50
2022-09-30T10:54:40.536Z,3.10
2022-09-30T10:57:35.208Z,8.75
2022-09-30T11:00:03.770Z,4.97
2022-09-30T11:02:31.889Z,2.80
2022-09-30T11:05:21.555Z,3.17
2022-09-30T11:08:10.528Z,6.03
2022-09-30T11:11:02.778Z,3.80
2022-09-30T11:13:43.565Z,3.90
2022-09-30T11:16:37.425Z,8.73
2022-09-30T11:19:11.267Z,4.97
2022-09-30T11:22:00.564Z,8.25
2022-09-30T11:24:37.217Z,8.60
2022-09-30T11:27:25.655Z,7.65
2022-09-30T11:30:16.216Z,3.30
2022-09-30T11:32:57.369Z,3.47
2022-09-30T11:35:58.769Z,5.35
2022-09-30T11:38:41.191Z,5.63
2022-09-30T11:41:11.654Z,5.97
2022-09-30T11:43:44.608Z,5.50
2022-09-30T11:46:30.157Z,5.80
2022-09-30T11:48:57.560Z,6.18
2022-09-30T11:51:46.222Z,5.82
2022-09-30T11:54:50.711Z,6.10
2022-09-30T11:57:27.496Z,5.40
2022-09-30T12:00:21.642Z,10.70
2022-09-30T12:02:57.451Z,12.25
2022-09-30T12:05:33.269Z,6.40
2022-09-30T12:08:25.005Z,6.32
2022-09-30T12:11:06.906Z,11.67
2022-09-30T12:13:44.496Z,9.52
2022-09-30T12:16:20.177Z,8.52
2022-09-30T12:18:56.287Z,9.90
2022-09-30T12:21:33.780Z,8.35
2022-09-30T12:24:25.381Z,7.28
2022-09-30T12:26:54.064Z,10.20
2022-09-30T12:29:50.734Z,10.25
2022-09-30T12:32:27.732Z,7.43
2022-09-30T12:35:08.775Z,8.18
2022-09-30T12:37:48.767Z,9.10
2022-09-30T12:40:24.961Z,9.18
2022-09-30T12:43:07.314Z,8.68
2022-09-30T12:46:14.574Z,12.77
2022-09-30T12:48:49.879Z,9.65
2022-09-30T12:51:25.934Z,8.90
2022-09-30T12:54:05.134Z,14.45
2022-09-30T12:56:34.114Z,19.13
2022-09-30T12:59:03.746Z,9.95
2022-09-30T13:01:35.582Z,14.27
2022-09-30T13:04:02.980Z,8.15
2022-09-30T13:06:45.611Z,14.32
2022-09-30T13:09:31.150Z,13.40
2022-09-30T13:11:58.459Z,9.77
2022-09-30T13:14:39.475Z,9.48
2022-09-30T13:17:06.793Z,12.13
2022-09-30T13:19:44.710Z,13.45
2022-09-30T13:22:18.420Z,14.38
2022-09-30T13:24:58.255Z,16.85
2022-09-30T13:27:34.531Z,12.02
2022-09-30T13:30:15.610Z,9.90
2022-09-30T13:32:45.834Z,19.88
2022-09-30T13:35:35.506Z,11.02
2022-09-30T13:38:15.050Z,10.75
2022-09-30T13:41:08.728Z,11.27
2022-09-30T13:43:51.090Z,9.63
2022-09-30T13:46:29.660Z,15.23
2022-09-30T13:49:01.193Z,10.63
2022-09-30T13:51:33.185Z,13.82
2022-09-30T13:54:08.582Z,15.60
2022-09-30T13:56:40.571Z,20.85
2022-09-30T13:59:23.021Z,16.20
2022-09-30T14:04:27.060Z,14.73
2022-09-30T14:07:16.450Z,11.05
2022-09-30T14:09:58.823Z,17.60
2022-09-30T14:12:45.564Z,10.00
2022-09-30T14:15:22.762Z,17.38
2022-09-30T14:18:08.605Z,9.48
2022-09-30T14:20:54.922Z,8.77
2022-09-30T14:23:22.619Z,11.05
2022-09-30T14:26:12.758Z,12.93
2022-09-30T14:28:54.971Z,12.30
2022-09-30T14:31:22.424Z,11.23
2022-09-30T14:33:50.493Z,8.27
2022-09-30T14:36:21.831Z,12.68
2022-09-30T14:39:00.381Z,12.60
2022-09-30T14:41:29.759Z,6.78
2022-09-30T14:44:02.903Z,12.73
2022-09-30T14:46:37.507Z,9.27
2022-09-30T14:49:09.590Z,8.25
2022-09-30T14:51:43.707Z,8.98
2022-09-30T14:54:18.027Z,13.48
2022-09-30T14:56:45.651Z,8.70
2022-09-30T14:59:19.004Z,10.90
2022-09-30T15:01:52.394Z,11.45
2022-09-30T15:04:25.399Z,6.85
2022-09-30T15:06:53.598Z,8.30
2022-09-30T15:09:34.875Z,8.35
2022-09-30T15:12:36.816Z,10.10
2022-09-30T15:15:25.727Z,12.13
2022-09-30T15:17:55.499Z,11.25
2022-09-30T15:20:26.512Z,9.82
2022-09-30T15:22:55.127Z,24.38
2022-09-30T15:25:23.012Z,9.75
2022-09-30T15:27:50.754Z,10.15
2022-09-30T15:30:18.322Z,7.22
2022-09-30T15:32:50.273Z,11.10
2022-09-30T15:35:21.818Z,9.32
2022-09-30T15:37:50.482Z,7.30
2022-09-30T15:40:42.923Z,7.78
2022-09-30T15:43:15.666Z,9.73
2022-09-30T15:45:45.351Z,9.73
2022-09-30T15:48:17.022Z,18.55
2022-09-30T15:50:53.037Z,10.63
2022-09-30T15:53:31.360Z,8.30
2022-09-30T15:56:00.300Z,7.47
2022-09-30T15:58:38.029Z,10.35
2022-09-30T16:01:21.583Z,10.60
2022-09-30T16:04:24.674Z,7.15
2022-09-30T16:12:06.398Z,11.73
2022-09-30T16:14:37.341Z,10.00
2022-09-30T16:17:06.065Z,15.10
2022-09-30T16:19:34.278Z,8.50
2022-09-30T16:22:02.141Z,10.23
2022-09-30T16:24:32.786Z,12.43
2022-09-30T16:27:23.563Z,11.27
2022-09-30T16:29:50.947Z,11.48
2022-09-30T16:32:18.360Z,11.13
2022-09-30T16:34:45.829Z,12.07
2022-09-30T16:37:15.248Z,17.25
2022-09-30T16:39:42.639Z,12.82
2022-09-30T16:42:14.963Z,10.25
2022-09-30T16:47:14.586Z,12.50
2022-09-30T16:49:43.146Z,13.75
2022-09-30T16:52:11.518Z,12.20
2022-09-30T16:54:39.338Z,11.57
2022-09-30T16:57:06.744Z,10.55
2022-09-30T16:59:34.169Z,11.85
2022-09-30T17:02:02.271Z,10.40
2022-09-30T17:04:29.822Z,8.85
2022-09-30T17:06:59.107Z,7.78
2022-09-30T17:09:26.715Z,11.88
2022-09-30T17:11:54.118Z,9.00
2022-09-30T17:14:21.540Z,11.77
2022-09-30T17:16:48.991Z,9.88
2022-09-30T17:19:16.407Z,10.38
2022-09-30T17:21:43.716Z,11.07
2022-09-30T17:24:11.083Z,8.63
2022-09-30T17:26:39.229Z,8.70
2022-09-30T17:29:30.900Z,10.35
2022-09-30T17:31:55.505Z,8.75
2022-09-30T17:34:22.994Z,7.30
2022-09-30T17:36:50.377Z,8.95
2022-09-30T17:39:17.787Z,10.82
2022-09-30T17:42:03.755Z,9.15
2022-09-30T17:44:31.211Z,9.07
2022-09-30T17:47:00.460Z,10.55
2022-09-30T17:49:33.139Z,11.30
2022-09-30T17:52:01.206Z,12.85
2022-09-30T17:54:29.516Z,13.80
2022-09-30T17:56:59.574Z,12.20
2022-09-30T17:59:28.537Z,10.70
2022-09-30T18:01:56.565Z,11.07
2022-09-30T18:04:26.172Z,10.82
2022-09-30T18:06:54.562Z,8.90
2022-09-30T18:09:22.908Z,10.55
2022-09-30T18:11:50.456Z,13.95
2022-09-30T18:14:17.890Z,13.10
2022-09-30T18:16:45.530Z,9.52
2022-09-30T18:21:41.245Z,11.70
2022-09-30T18:24:10.270Z,13.27
2022-09-30T18:26:37.685Z,11.80
2022-09-30T18:29:06.187Z,13.82
2022-09-30T18:31:38.035Z,12.00
2022-09-30T18:34:06.750Z,14.25
2022-09-30T18:36:35.377Z,12.77
2022-09-30T18:39:03.082Z,12.73
2022-09-30T18:41:32.637Z,9.45
2022-09-30T18:44:02.671Z,10.13
2022-09-30T18:46:31.201Z,8.52
2022-09-30T18:48:58.748Z,8.20
2022-09-30T18:51:26.187Z,10.13
2022-09-30T18:53:58.889Z,9.05
2022-09-30T18:56:31.862Z,10.40
2022-09-30T19:01:36.295Z,9.20
2022-09-30T19:04:04.498Z,10.38
2022-09-30T19:06:32.390Z,10.50
2022-09-30T19:08:59.811Z,7.75
2022-09-30T19:11:27.876Z,12.23
2022-09-30T19:13:57.926Z,12.15
2022-09-30T19:16:25.993Z,7.07
2022-09-30T19:18:55.036Z,9.20
2022-09-30T19:21:22.556Z,9.10
2022-09-30T19:23:50.291Z,9.50
2022-09-30T19:26:17.693Z,11.25
2022-09-30T19:28:45.074Z,16.52
2022-09-30T19:31:15.475Z,12.55
2022-09-30T19:33:56.010Z,13.40
2022-09-30T19:36:27.087Z,12.90
2022-09-30T19:39:08.999Z,15.95
2022-09-30T19:41:38.363Z,13.98
2022-09-30T19:44:05.803Z,8.63
2022-09-30T19:46:33.349Z,11.05
2022-09-30T19:49:00.808Z,6.28
2022-09-30T19:51:31.198Z,9.63
2022-09-30T19:54:06.019Z,10.85
2022-09-30T19:56:36.869Z,8.65
2022-09-30T19:59:04.927Z,8.05
2022-09-30T20:01:34.946Z,6.75
2022-09-30T20:04:05.354Z,9.93
2022-09-30T20:06:34.306Z,6.18
2022-09-30T20:09:04.335Z,6.95
2022-09-30T20:11:33.944Z,6.72
2022-09-30T20:14:21.995Z,10.82
2022-09-30T20:16:49.884Z,12.23
2022-09-30T20:19:18.344Z,11.65
2022-09-30T20:21:46.579Z,15.80
2022-09-30T20:24:16.081Z,14.57
2022-09-30T20:26:46.063Z,12.95
2022-09-30T20:29:13.566Z,13.30
2022-09-30T20:31:42.997Z,14.95
2022-09-30T20:34:13.654Z,18.60
2022-09-30T20:36:41.739Z,17.10
2022-09-30T20:39:09.594Z,14.38
2022-09-30T20:41:39.055Z,16.23
2022-09-30T20:44:11.169Z,15.98
2022-09-30T20:46:39.403Z,13.20
2022-09-30T20:49:07.206Z,10.30
2022-09-30T20:51:35.025Z,11.80
2022-09-30T20:54:02.674Z,12.40
2022-09-30T20:56:49.641Z,13.13
2022-09-30T20:59:18.113Z,12.43
2022-09-30T21:01:45.525Z,11.88
2022-09-30T21:04:12.911Z,9.82
2022-09-30T21:06:40.378Z,13.02
2022-09-30T21:09:11.284Z,7.20
2022-09-30T21:11:41.279Z,10.57
2022-09-30T21:14:09.443Z,13.02
2022-09-30T21:16:36.984Z,7.18
2022-09-30T21:19:04.570Z,10.68
2022-09-30T21:21:32.164Z,12.48
2022-09-30T21:24:00.149Z,9.95
2022-09-30T21:26:28.014Z,13.45
2022-09-30T21:28:55.411Z,9.85
2022-09-30T21:31:25.339Z,12.02
2022-09-30T21:34:01.529Z,13.52
2022-09-30T21:36:29.642Z,12.35
2022-09-30T21:39:04.319Z,17.23
2022-09-30T21:41:33.379Z,16.02
2022-09-30T21:44:03.174Z,18.48
2022-09-30T21:46:30.728Z,14.07
2022-09-30T21:49:26.325Z,12.77
2022-09-30T21:51:53.706Z,9.25
2022-09-30T21:54:21.140Z,9.93
2022-09-30T21:56:48.659Z,7.45
2022-09-30T21:59:16.394Z,8.35
2022-09-30T22:01:43.828Z,9.10
2022-09-30T22:04:11.214Z,8.68
2022-09-30T22:06:38.645Z,7.32
2022-09-30T22:09:06.035Z,9.68
2022-09-30T22:11:33.660Z,13.68
2022-09-30T22:14:01.295Z,10.10
2022-09-30T22:16:32.079Z,8.20
2022-09-30T22:19:01.246Z,11.18
2022-09-30T22:21:33.924Z,9.48
2022-09-30T22:24:02.957Z,10.88
2022-09-30T22:26:31.833Z,12.13
2022-09-30T22:29:01.701Z,10.75
2022-09-30T22:31:31.628Z,10.30
2022-09-30T22:34:20.553Z,15.80
2022-09-30T22:37:07.089Z,14.48
2022-09-30T22:39:35.041Z,12.43
2022-09-30T22:42:02.922Z,11.20
2022-09-30T22:44:34.724Z,13.82
2022-09-30T22:47:02.951Z,11.77
2022-09-30T22:49:34.308Z,13.50
2022-09-30T22:52:04.845Z,18.07
2022-09-30T22:54:33.988Z,10.40
2022-09-30T22:57:01.798Z,12.82
2022-09-30T22:59:30.026Z,14.80
2022-09-30T23:01:57.858Z,15.07
2022-09-30T23:04:26.831Z,16.90
2022-09-30T23:06:55.483Z,10.63
2022-09-30T23:09:23.059Z,11.50
2022-09-30T23:11:54.112Z,12.70
2022-09-30T23:14:22.314Z,11.95
2022-09-30T23:16:50.170Z,14.85
2022-09-30T23:19:17.985Z,17.60
2022-09-30T23:21:45.353Z,12.85
2022-09-30T23:24:12.713Z,13.40
2022-09-30T23:26:40.105Z,13.88
2022-09-30T23:29:13.492Z,12.82
2022-09-30T23:31:41.383Z,11.85
2022-09-30T23:34:08.959Z,13.55
2022-09-30T23:36:37.205Z,10.70
2022-09-30T23:39:19.315Z,12.93
2022-09-30T23:41:50.365Z,14.05
2022-09-30T23:44:18.929Z,9.13
2022-09-30T23:47:06.329Z,11.98
2022-09-30T23:49:36.967Z,9.57
2022-09-30T23:52:12.719Z,8.75
2022-09-30T23:54:44.190Z,10.77
2022-09-30T23:57:12.002Z,11.80
2022-09-30T23:59:39.954Z,12.63
